Аэропорт: Новокузнецк-Спиченково. Новокузнецк

ICAO: UNWW

METAR:
2023-09-29 22:30:00
UNWW 292230Z 00000MPS 2000 R01/P2000U SHRA BR BKN005 BKN033CB 08/07 Q1016 R01/290250 NOSIG RMK QFE735
METAR:
2023-09-29 20:00:00
TAF UNWW 292000Z 2921/3021 12003MPS 0150 FG BKN001 TEMPO 2921/3003 1500 BR BKN005 BECMG 3003/3004 8000 NSW BKN016CB BECMG 3004/3006 25003G08MPS